Time;durP1;ratioP1;P1;durP2;ratioP2;P2;SDS_P1;SDS_P2;PMS_P1;PMS_P2;Temp;Humidity;BMP_temperature;BMP_pressure;BME280_temperature;BME280_humidity;BME280_pressure;Samples;Min_cycle;Max_cycle;Signal;HPM_P1;HPM_P2
2022/01/15 00:00:56;;;;;;;10.32;1.88;;;;;;;;;;5072613;28;20378;-65
2022/01/15 00:03:23;;;;;;;12.13;1.80;;;;;;;;;;5072701;28;20016;-64
2022/01/15 00:05:49;;;;;;;7.03;2.25;;;;;;;;;;5072735;28;20474;-64
2022/01/15 00:08:16;;;;;;;11.63;2.03;;;;;;;;;;5072582;28;20020;-64
2022/01/15 00:10:42;;;;;;;7.03;1.73;;;;;;;;;;5072621;28;20462;-64
2022/01/15 00:13:14;;;;;;;9.23;1.75;;;;;;;;;;5087719;28;20401;-64
2022/01/15 00:15:47;;;;;;;10.43;2.10;;;;;;;;;;5069062;28;20037;-64
2022/01/15 00:18:15;;;;;;;9.15;1.80;;;;;;;;;;5052154;28;20541;-65
2022/01/15 00:20:42;;;;;;;9.35;1.85;;;;;;;;;;5052587;28;20589;-64
2022/01/15 00:23:08;;;;;;;8.20;2.08;;;;;;;;;;5052771;28;20021;-64
2022/01/15 00:25:35;;;;;;;6.53;1.90;;;;;;;;;;5052899;28;20103;-64
2022/01/15 00:28:02;;;;;;;6.10;2.00;;;;;;;;;;5052355;28;20021;-65
2022/01/15 00:30:28;;;;;;;5.82;1.90;;;;;;;;;;5052476;28;20025;-64
2022/01/15 00:32:55;;;;;;;9.10;1.90;;;;;;;;;;5034565;28;20029;-64
2022/01/15 00:35:23;;;;;;;10.75;2.28;;;;;;;;;;5052329;28;20065;-64
2022/01/15 00:50:16;;;;;;;8.98;2.50;;;;;;;;;;5036085;28;20018;-64
2022/01/15 00:52:42;;;;;;;8.77;2.20;;;;;;;;;;5038685;28;20459;-65
2022/01/15 00:55:10;;;;;;;12.63;2.53;;;;;;;;;;5055745;28;20021;-64
2022/01/15 00:57:36;;;;;;;12.80;2.85;;;;;;;;;;5055965;28;20025;-64
2022/01/15 01:00:04;;;;;;;10.73;3.15;;;;;;;;;;5046545;28;20087;-65
2022/01/15 01:05:34;;;;;;;8.60;2.42;;;;;;;;;;5049820;28;20391;-65
2022/01/15 01:08:00;;;;;;;7.70;2.85;;;;;;;;;;5040490;28;20418;-64
2022/01/15 01:13:38;;;;;;;5.30;2.95;;;;;;;;;;5044535;28;20450;-64
2022/01/15 01:24:06;;;;;;;7.55;2.25;;;;;;;;;;5075500;28;20031;-64
2022/01/15 01:26:58;;;;;;;10.85;3.00;;;;;;;;;;5075545;28;20024;-65
2022/01/15 01:34:51;;;;;;;8.45;3.25;;;;;;;;;;5075621;28;20040;-64
2022/01/15 01:37:26;;;;;;;8.93;3.03;;;;;;;;;;5075734;28;20104;-64
2022/01/15 01:40:06;;;;;;;8.35;2.28;;;;;;;;;;5075261;28;20493;-66
2022/01/15 01:42:42;;;;;;;7.70;2.40;;;;;;;;;;5090931;28;20035;-66
2022/01/15 01:45:10;;;;;;;8.55;2.65;;;;;;;;;;5075474;28;20020;-65
2022/01/15 01:47:41;;;;;;;15.77;2.90;;;;;;;;;;5075195;28;20025;-65
2022/01/15 01:50:13;;;;;;;7.63;2.20;;;;;;;;;;5074628;28;20396;-65
2022/01/15 01:52:40;;;;;;;6.32;2.72;;;;;;;;;;5075110;28;20032;-65
2022/01/15 01:55:07;;;;;;;9.05;3.10;;;;;;;;;;5057000;28;20501;-64
2022/01/15 01:57:33;;;;;;;7.72;2.80;;;;;;;;;;5074813;28;20489;-64
2022/01/15 02:00:00;;;;;;;5.88;3.05;;;;;;;;;;5074894;28;20024;-66
2022/01/15 02:02:26;;;;;;;4.45;2.63;;;;;;;;;;5056888;28;20028;-65
2022/01/15 02:04:57;;;;;;;5.85;2.55;;;;;;;;;;5074372;28;20029;-65
2022/01/15 02:07:23;;;;;;;6.72;2.35;;;;;;;;;;5074638;28;20021;-66
2022/01/15 02:09:49;;;;;;;7.40;2.28;;;;;;;;;;5056588;28;20393;-65
2022/01/15 02:12:16;;;;;;;4.25;1.88;;;;;;;;;;5074753;28;20029;-65
2022/01/15 02:14:42;;;;;;;6.13;2.85;;;;;;;;;;5074542;28;20429;-65
2022/01/15 02:17:11;;;;;;;12.27;3.10;;;;;;;;;;5052137;28;20057;-65
2022/01/15 02:19:45;;;;;;;9.43;2.95;;;;;;;;;;5074132;28;20482;-65
2022/01/15 02:24:56;;;;;;;6.65;3.13;;;;;;;;;;5074683;28;20031;-65
2022/01/15 02:27:23;;;;;;;10.50;3.75;;;;;;;;;;5073334;28;20028;-65
2022/01/15 02:30:20;;;;;;;9.98;3.72;;;;;;;;;;5073448;28;20055;-65
2022/01/15 02:32:47;;;;;;;9.40;3.97;;;;;;;;;;5074146;28;20052;-66
2022/01/15 02:35:14;;;;;;;8.30;3.42;;;;;;;;;;5073836;28;20021;-65
2022/01/15 02:38:08;;;;;;;10.18;4.45;;;;;;;;;;5056113;28;20028;-66
2022/01/15 02:40:37;;;;;;;14.18;5.05;;;;;;;;;;5070972;28;20166;-66
2022/01/15 02:43:15;;;;;;;12.63;4.75;;;;;;;;;;5069972;28;20048;-65
2022/01/15 02:45:45;;;;;;;13.02;3.80;;;;;;;;;;5055530;28;20039;-65
2022/01/15 02:48:16;;;;;;;11.52;4.35;;;;;;;;;;5055485;28;20035;-65
2022/01/15 02:50:43;;;;;;;9.20;4.07;;;;;;;;;;5073192;28;20025;-65
2022/01/15 02:53:11;;;;;;;12.27;3.50;;;;;;;;;;5071024;28;20044;-65
2022/01/15 02:58:50;;;;;;;10.95;3.78;;;;;;;;;;5072518;28;20036;-66
2022/01/15 03:01:16;;;;;;;9.55;3.60;;;;;;;;;;5072798;28;20020;-65
2022/01/15 03:03:43;;;;;;;11.13;4.28;;;;;;;;;;5072657;28;20029;-65
2022/01/15 03:06:13;;;;;;;10.02;4.50;;;;;;;;;;5055659;28;20028;-65
2022/01/15 03:08:59;;;;;;;10.30;5.00;;;;;;;;;;5073634;28;20029;-66
2022/01/15 03:11:27;;;;;;;11.07;5.68;;;;;;;;;;5053112;28;20029;-66
2022/01/15 03:13:54;;;;;;;9.60;5.32;;;;;;;;;;5073468;28;20044;-65
2022/01/15 03:19:38;;;;;;;11.93;4.90;;;;;;;;;;5072705;28;20585;-66
2022/01/15 03:22:04;;;;;;;10.13;4.32;;;;;;;;;;5088660;28;20031;-65
2022/01/15 03:24:31;;;;;;;32.30;14.77;;;;;;;;;;5072993;28;20016;-66
2022/01/15 03:26:57;;;;;;;47.35;24.30;;;;;;;;;;5072474;28;20028;-66
2022/01/15 03:29:23;;;;;;;51.38;30.70;;;;;;;;;;5054026;28;20039;-66
2022/01/15 03:31:49;;;;;;;62.55;33.92;;;;;;;;;;5071138;28;20028;-66
2022/01/15 03:34:16;;;;;;;53.03;33.15;;;;;;;;;;5055180;28;20036;-65
2022/01/15 03:36:42;;;;;;;53.83;32.50;;;;;;;;;;5072715;28;20466;-66
2022/01/15 03:39:08;;;;;;;54.92;30.38;;;;;;;;;;5072112;28;20025;-66
2022/01/15 03:41:35;;;;;;;55.50;30.90;;;;;;;;;;5054554;28;20020;-66
2022/01/15 03:44:01;;;;;;;49.95;27.67;;;;;;;;;;5071739;28;20024;-66
2022/01/15 03:46:27;;;;;;;51.42;27.15;;;;;;;;;;5088320;28;20029;-67
2022/01/15 03:48:54;;;;;;;50.30;28.13;;;;;;;;;;5075723;28;20028;-66
2022/01/15 03:51:20;;;;;;;51.58;28.50;;;;;;;;;;5072390;28;20021;-66
2022/01/15 03:53:46;;;;;;;49.25;28.88;;;;;;;;;;5072599;28;20024;-65
2022/01/15 03:56:13;;;;;;;45.33;28.73;;;;;;;;;;5070653;28;20462;-66
2022/01/15 03:58:39;;;;;;;44.30;27.48;;;;;;;;;;5064392;28;20111;-67
2022/01/15 04:01:05;;;;;;;43.28;26.15;;;;;;;;;;5070614;28;20382;-65
2022/01/15 04:06:35;;;;;;;49.03;28.67;;;;;;;;;;5072525;28;20166;-67
2022/01/15 04:09:01;;;;;;;47.08;29.05;;;;;;;;;;5071369;28;20374;-65
2022/01/15 04:11:28;;;;;;;50.22;29.60;;;;;;;;;;5072145;28;20021;-66
2022/01/15 04:13:55;;;;;;;47.42;28.85;;;;;;;;;;5078300;28;20034;-67
2022/01/15 04:16:21;;;;;;;47.92;29.10;;;;;;;;;;5070038;28;20098;-66
2022/01/15 04:18:47;;;;;;;49.20;28.55;;;;;;;;;;5052538;28;20066;-65
2022/01/15 04:21:14;;;;;;;45.60;27.20;;;;;;;;;;5045093;28;20489;-64
2022/01/15 04:23:41;;;;;;;49.15;28.42;;;;;;;;;;5053602;28;20025;-66
2022/01/15 04:26:08;;;;;;;49.10;27.92;;;;;;;;;;5030329;28;20025;-67
2022/01/15 04:28:37;;;;;;;56.45;29.20;;;;;;;;;;5034234;28;20076;-66
2022/01/15 04:31:08;;;;;;;52.63;30.00;;;;;;;;;;5050698;28;20487;-71
2022/01/15 04:33:35;;;;;;;48.30;28.20;;;;;;;;;;5048241;28;20021;-66
2022/01/15 04:36:02;;;;;;;44.85;28.00;;;;;;;;;;5048335;28;20071;-65
2022/01/15 04:38:30;;;;;;;42.05;26.67;;;;;;;;;;5048772;28;20033;-66
2022/01/15 04:40:56;;;;;;;44.72;24.55;;;;;;;;;;5031792;28;20029;-65
2022/01/15 04:43:23;;;;;;;43.38;25.58;;;;;;;;;;5050147;28;20049;-66
2022/01/15 04:45:49;;;;;;;44.50;24.15;;;;;;;;;;5049628;28;20032;-66
2022/01/15 04:48:16;;;;;;;40.40;23.65;;;;;;;;;;5064907;28;20033;-66
2022/01/15 04:50:42;;;;;;;45.95;23.10;;;;;;;;;;5029084;28;20158;-66
2022/01/15 04:53:09;;;;;;;47.58;24.38;;;;;;;;;;5031585;28;20085;-66
2022/01/15 04:55:35;;;;;;;44.63;24.20;;;;;;;;;;5066802;28;20033;-66
2022/01/15 04:58:02;;;;;;;38.10;24.30;;;;;;;;;;5048649;28;20093;-65
2022/01/15 05:00:28;;;;;;;42.83;24.02;;;;;;;;;;5051679;28;20024;-65
2022/01/15 05:02:56;;;;;;;38.53;24.05;;;;;;;;;;5049839;28;20032;-66
2022/01/15 05:05:23;;;;;;;50.13;24.83;;;;;;;;;;5049902;28;20019;-67
2022/01/15 05:07:52;;;;;;;40.97;25.30;;;;;;;;;;5073546;28;20033;-65
2022/01/15 05:10:20;;;;;;;43.85;26.60;;;;;;;;;;5051061;28;20021;-65
2022/01/15 05:12:48;;;;;;;53.10;28.88;;;;;;;;;;5053498;28;20139;-69
2022/01/15 05:15:16;;;;;;;54.40;28.80;;;;;;;;;;5048902;28;20405;-66
2022/01/15 05:17:42;;;;;;;39.70;27.48;;;;;;;;;;5051789;28;20044;-66
2022/01/15 05:20:09;;;;;;;54.80;29.88;;;;;;;;;;5066906;28;20018;-65
2022/01/15 05:22:35;;;;;;;45.45;28.85;;;;;;;;;;5074258;28;20021;-64
2022/01/15 05:25:03;;;;;;;55.38;27.65;;;;;;;;;;5072648;28;20023;-64
2022/01/15 05:27:29;;;;;;;51.30;28.40;;;;;;;;;;5070583;28;20158;-65
2022/01/15 05:29:56;;;;;;;47.55;27.67;;;;;;;;;;5073126;28;20035;-65
2022/01/15 05:32:23;;;;;;;48.20;28.85;;;;;;;;;;5066029;28;20036;-64
2022/01/15 05:34:50;;;;;;;56.92;31.55;;;;;;;;;;5069579;28;20024;-66
2022/01/15 05:37:17;;;;;;;59.92;31.58;;;;;;;;;;5066339;28;20040;-66
2022/01/15 05:39:43;;;;;;;54.40;31.02;;;;;;;;;;5067114;28;20024;-65
2022/01/15 05:42:10;;;;;;;56.88;34.15;;;;;;;;;;5068594;28;20104;-65
2022/01/15 05:44:36;;;;;;;59.58;32.15;;;;;;;;;;5071311;28;20043;-65
2022/01/15 05:47:03;;;;;;;60.95;33.17;;;;;;;;;;5073330;28;20035;-66
2022/01/15 05:49:29;;;;;;;70.72;37.22;;;;;;;;;;5055266;28;20113;-68
2022/01/15 05:51:55;;;;;;;67.43;37.97;;;;;;;;;;5074119;28;20056;-66
2022/01/15 05:54:22;;;;;;;66.18;39.90;;;;;;;;;;5055626;28;20107;-66
2022/01/15 05:56:48;;;;;;;66.50;39.25;;;;;;;;;;5056326;28;20032;-65
2022/01/15 05:59:42;;;;;;;67.93;38.58;;;;;;;;;;5090056;28;20025;-66
2022/01/15 06:02:09;;;;;;;73.97;41.25;;;;;;;;;;5074023;28;20027;-66
2022/01/15 06:04:35;;;;;;;68.70;40.50;;;;;;;;;;5089155;28;20028;-66
2022/01/15 06:07:01;;;;;;;67.63;39.10;;;;;;;;;;5051110;28;20086;-66
2022/01/15 06:09:28;;;;;;;68.28;38.97;;;;;;;;;;5054359;28;20074;-66
2022/01/15 06:11:57;;;;;;;69.63;39.50;;;;;;;;;;5078048;28;20029;-67
2022/01/15 06:14:23;;;;;;;62.90;36.10;;;;;;;;;;5072913;28;20020;-66
2022/01/15 06:16:50;;;;;;;58.35;35.47;;;;;;;;;;5055485;28;20033;-65
2022/01/15 06:19:16;;;;;;;57.58;33.28;;;;;;;;;;5059557;28;20045;-65
2022/01/15 06:21:42;;;;;;;58.63;34.53;;;;;;;;;;5046880;28;20040;-65
2022/01/15 06:24:08;;;;;;;53.97;33.08;;;;;;;;;;5041872;28;20021;-65
2022/01/15 06:26:41;;;;;;;59.08;32.30;;;;;;;;;;5052886;28;20060;-66
2022/01/15 06:35:21;;;;;;;50.63;30.20;;;;;;;;;;5041580;28;20029;-65
2022/01/15 06:37:47;;;;;;;52.40;30.98;;;;;;;;;;5053361;28;20028;-65
2022/01/15 06:40:15;;;;;;;52.60;30.33;;;;;;;;;;5053351;28;20025;-66
2022/01/15 06:42:42;;;;;;;45.80;28.05;;;;;;;;;;5038387;28;20021;-65
2022/01/15 06:45:08;;;;;;;43.13;26.58;;;;;;;;;;5064268;28;20017;-65
2022/01/15 06:47:35;;;;;;;46.17;27.17;;;;;;;;;;5052669;28;20429;-66
2022/01/15 06:50:05;;;;;;;40.53;24.52;;;;;;;;;;5032880;28;20068;-66
2022/01/15 06:52:34;;;;;;;41.97;25.23;;;;;;;;;;5053299;28;20032;-64
2022/01/15 06:55:00;;;;;;;35.70;23.35;;;;;;;;;;5035764;28;20029;-66
2022/01/15 06:57:45;;;;;;;33.50;22.55;;;;;;;;;;5053223;28;20056;-65
2022/01/15 07:00:12;;;;;;;41.53;24.30;;;;;;;;;;5026041;28;20025;-65
2022/01/15 07:02:39;;;;;;;41.42;23.08;;;;;;;;;;5046621;28;20439;-65
2022/01/15 07:05:13;;;;;;;51.75;26.25;;;;;;;;;;5051417;28;20082;-65
2022/01/15 07:07:44;;;;;;;38.70;23.35;;;;;;;;;;5038932;28;20093;-65
2022/01/15 07:10:11;;;;;;;41.60;21.77;;;;;;;;;;5033684;28;20030;-64
2022/01/15 07:12:37;;;;;;;34.47;21.58;;;;;;;;;;5031458;28;20033;-66
2022/01/15 07:15:04;;;;;;;31.85;19.80;;;;;;;;;;5046581;28;20385;-66
2022/01/15 07:17:31;;;;;;;33.28;19.75;;;;;;;;;;5049266;28;20036;-66
2022/01/15 07:19:57;;;;;;;32.58;20.23;;;;;;;;;;5067689;28;20722;-66
2022/01/15 07:22:24;;;;;;;39.95;21.23;;;;;;;;;;5064913;28;20025;-66
2022/01/15 07:24:50;;;;;;;32.30;20.67;;;;;;;;;;5050943;28;20067;-66
2022/01/15 07:27:16;;;;;;;33.35;20.40;;;;;;;;;;5072202;28;20032;-66
2022/01/15 07:29:43;;;;;;;38.38;21.27;;;;;;;;;;5070299;28;20029;-68
2022/01/15 07:32:09;;;;;;;38.55;21.55;;;;;;;;;;5069173;28;20538;-67
2022/01/15 07:34:36;;;;;;;32.17;20.27;;;;;;;;;;5072041;28;20542;-67
2022/01/15 07:37:02;;;;;;;33.85;20.30;;;;;;;;;;5084827;28;20028;-66
2022/01/15 07:39:28;;;;;;;38.45;22.67;;;;;;;;;;5052929;28;20025;-67
2022/01/15 07:41:58;;;;;;;39.90;24.05;;;;;;;;;;5069367;28;20127;-66
2022/01/15 07:44:24;;;;;;;35.53;23.20;;;;;;;;;;5070576;28;20557;-65
2022/01/15 07:46:51;;;;;;;37.55;20.75;;;;;;;;;;5062755;28;20047;-66
2022/01/15 07:52:20;;;;;;;27.67;18.10;;;;;;;;;;5067887;28;20371;-67
2022/01/15 07:54:47;;;;;;;31.73;18.83;;;;;;;;;;5070543;28;20033;-67
2022/01/15 07:57:13;;;;;;;34.00;20.08;;;;;;;;;;5069372;28;20093;-66
2022/01/15 07:59:39;;;;;;;37.05;21.02;;;;;;;;;;5066220;28;20043;-67
2022/01/15 08:02:05;;;;;;;40.83;24.63;;;;;;;;;;5067743;28;20044;-67
2022/01/15 08:04:32;;;;;;;44.60;26.42;;;;;;;;;;5074168;28;20459;-66
2022/01/15 08:06:58;;;;;;;49.83;28.88;;;;;;;;;;5067619;28;20462;-66
2022/01/15 08:09:24;;;;;;;45.08;28.55;;;;;;;;;;5066121;28;20028;-66
2022/01/15 08:11:51;;;;;;;46.92;28.13;;;;;;;;;;5067007;28;20032;-67
2022/01/15 08:14:17;;;;;;;45.50;26.23;;;;;;;;;;5050840;28;20021;-66
2022/01/15 08:16:43;;;;;;;41.25;24.95;;;;;;;;;;5069498;28;20040;-66
2022/01/15 08:19:10;;;;;;;42.42;23.08;;;;;;;;;;5072943;28;20052;-65
2022/01/15 08:24:39;;;;;;;45.60;21.30;;;;;;;;;;5070505;28;20071;-66
2022/01/15 08:27:06;;;;;;;34.90;20.75;;;;;;;;;;5047816;28;20033;-65
2022/01/15 08:29:32;;;;;;;35.85;22.13;;;;;;;;;;5068171;28;20262;-66
2022/01/15 08:31:59;;;;;;;33.28;21.83;;;;;;;;;;5070162;28;20712;-66
2022/01/15 08:34:25;;;;;;;37.58;21.92;;;;;;;;;;5066913;28;20029;-68
2022/01/15 08:36:51;;;;;;;27.92;19.60;;;;;;;;;;5050030;28;20041;-66
2022/01/15 08:39:18;;;;;;;28.35;16.67;;;;;;;;;;5084957;28;20030;-64
2022/01/15 08:41:48;;;;;;;29.45;17.67;;;;;;;;;;5070243;28;20020;-67
2022/01/15 08:44:20;;;;;;;32.00;18.83;;;;;;;;;;5063526;28;20020;-67
2022/01/15 08:46:46;;;;;;;30.58;17.30;;;;;;;;;;5067274;28;20028;-67
2022/01/15 08:49:13;;;;;;;26.40;16.50;;;;;;;;;;5069910;28;20054;-67
2022/01/15 08:51:39;;;;;;;38.50;17.55;;;;;;;;;;5048867;28;20111;-67
2022/01/15 08:54:06;;;;;;;27.98;15.73;;;;;;;;;;5060014;28;20033;-67
2022/01/15 08:56:32;;;;;;;29.58;16.13;;;;;;;;;;5067620;28;20050;-68
2022/01/15 08:58:58;;;;;;;27.58;16.45;;;;;;;;;;5070903;28;20079;-68
2022/01/15 09:01:25;;;;;;;24.23;15.85;;;;;;;;;;5070081;28;20120;-68
2022/01/15 09:03:52;;;;;;;26.50;15.15;;;;;;;;;;5052683;28;20051;-66
2022/01/15 09:06:18;;;;;;;30.98;16.58;;;;;;;;;;5071836;28;20044;-67
2022/01/15 09:08:45;;;;;;;29.05;17.20;;;;;;;;;;5086675;28;20539;-67
2022/01/15 09:11:11;;;;;;;32.00;17.17;;;;;;;;;;5073286;28;20139;-66
2022/01/15 09:13:37;;;;;;;26.88;15.23;;;;;;;;;;5071222;28;20020;-68
2022/01/15 09:19:11;;;;;;;21.58;12.60;;;;;;;;;;5064854;28;20667;-66
2022/01/15 09:21:37;;;;;;;21.00;11.23;;;;;;;;;;5053519;28;20441;-67
2022/01/15 09:24:04;;;;;;;18.40;10.10;;;;;;;;;;5069799;28;20027;-65
2022/01/15 09:32:03;;;;;;;18.48;9.63;;;;;;;;;;5072489;28;20137;-67
2022/01/15 09:34:30;;;;;;;14.15;9.38;;;;;;;;;;5072028;28;20024;-67
2022/01/15 09:36:56;;;;;;;16.27;8.13;;;;;;;;;;5052015;28;20028;-66
2022/01/15 09:39:23;;;;;;;16.05;9.05;;;;;;;;;;5051604;28;20066;-66
2022/01/15 09:41:51;;;;;;;15.13;7.50;;;;;;;;;;5069854;28;20016;-67
2022/01/15 09:44:19;;;;;;;15.05;8.15;;;;;;;;;;5068836;28;20340;-67
2022/01/15 09:46:46;;;;;;;13.15;7.93;;;;;;;;;;5071590;28;20032;-66
2022/01/15 09:49:14;;;;;;;16.10;8.32;;;;;;;;;;5070736;28;20481;-67
2022/01/15 09:51:40;;;;;;;15.02;7.93;;;;;;;;;;5071663;28;20028;-65
2022/01/15 09:54:06;;;;;;;19.33;8.43;;;;;;;;;;5053974;28;20080;-67
2022/01/15 09:56:33;;;;;;;14.48;7.63;;;;;;;;;;5054091;28;20020;-66
2022/01/15 09:59:02;;;;;;;15.23;9.48;;;;;;;;;;5071959;28;20409;-65
2022/01/15 10:01:29;;;;;;;15.20;7.68;;;;;;;;;;5064896;28;20035;-68
2022/01/15 10:03:56;;;;;;;15.82;8.15;;;;;;;;;;5054465;28;20097;-69
2022/01/15 10:06:23;;;;;;;17.70;8.00;;;;;;;;;;5069267;28;20103;-67
2022/01/15 10:08:59;;;;;;;16.90;8.10;;;;;;;;;;5069034;28;20463;-67
2022/01/15 10:11:46;;;;;;;16.40;8.82;;;;;;;;;;5069851;28;20119;-70
2022/01/15 10:20:26;;;;;;;21.02;10.10;;;;;;;;;;5052409;28;20052;-68
2022/01/15 10:22:53;;;;;;;23.45;10.57;;;;;;;;;;5051594;28;20029;-68
2022/01/15 10:25:21;;;;;;;22.73;10.80;;;;;;;;;;5051387;28;20561;-66
2022/01/15 10:27:47;;;;;;;27.65;10.68;;;;;;;;;;5050572;28;20061;-67
2022/01/15 10:30:14;;;;;;;21.27;10.65;;;;;;;;;;5051699;28;20371;-66
2022/01/15 10:32:51;;;;;;;24.02;11.13;;;;;;;;;;5048995;28;20037;-67
2022/01/15 10:35:18;;;;;;;30.40;11.95;;;;;;;;;;5031680;28;20411;-67
2022/01/15 10:37:49;;;;;;;21.60;11.38;;;;;;;;;;5051588;28;20025;-67
2022/01/15 10:40:16;;;;;;;26.95;13.10;;;;;;;;;;5051005;28;20079;-67
2022/01/15 10:42:50;;;;;;;29.17;13.02;;;;;;;;;;5032859;28;20021;-69
2022/01/15 10:45:17;;;;;;;30.50;14.25;;;;;;;;;;5051302;28;20389;-68
2022/01/15 10:50:55;;;;;;;27.45;13.88;;;;;;;;;;5053918;28;20114;-68
2022/01/15 10:53:32;;;;;;;30.10;14.80;;;;;;;;;;5050155;28;20025;-67
2022/01/15 10:55:59;;;;;;;28.17;15.55;;;;;;;;;;5051210;28;20541;-67
2022/01/15 10:58:25;;;;;;;29.52;15.85;;;;;;;;;;5052001;28;20057;-67
2022/01/15 11:00:52;;;;;;;31.08;14.70;;;;;;;;;;5032480;28;20120;-65
2022/01/15 11:03:20;;;;;;;28.50;14.82;;;;;;;;;;5032744;28;20021;-66
2022/01/15 11:08:56;;;;;;;30.00;14.73;;;;;;;;;;5053485;28;20131;-69
2022/01/15 11:11:23;;;;;;;31.73;13.52;;;;;;;;;;5032180;28;20021;-68
2022/01/15 11:13:49;;;;;;;29.08;13.25;;;;;;;;;;5032093;28;20026;-66
2022/01/15 11:16:19;;;;;;;28.08;12.20;;;;;;;;;;5032803;28;20028;-68
2022/01/15 11:18:49;;;;;;;23.70;14.32;;;;;;;;;;5054454;28;20044;-70
2022/01/15 11:21:18;;;;;;;27.45;13.20;;;;;;;;;;5071175;28;20103;-68
2022/01/15 11:26:55;;;;;;;33.83;14.73;;;;;;;;;;5078937;28;20025;-68
2022/01/15 11:29:22;;;;;;;37.75;16.92;;;;;;;;;;5058648;28;20051;-67
2022/01/15 11:31:53;;;;;;;39.25;15.25;;;;;;;;;;5072175;28;20021;-66
2022/01/15 11:34:20;;;;;;;33.33;15.88;;;;;;;;;;5068967;28;20013;-66
2022/01/15 11:36:47;;;;;;;33.05;15.73;;;;;;;;;;5054409;28;20036;-67
2022/01/15 11:39:15;;;;;;;31.33;16.35;;;;;;;;;;5071735;28;20103;-70
2022/01/15 11:41:45;;;;;;;43.17;17.20;;;;;;;;;;5072003;28;20020;-67
2022/01/15 11:44:38;;;;;;;41.65;17.50;;;;;;;;;;5071547;28;20025;-68
2022/01/15 11:47:15;;;;;;;35.85;14.63;;;;;;;;;;5070781;28;20036;-66
2022/01/15 11:49:45;;;;;;;36.53;15.10;;;;;;;;;;5072077;28;20031;-66
2022/01/15 11:55:20;;;;;;;30.80;12.63;;;;;;;;;;5073195;28;20025;-66
2022/01/15 11:57:48;;;;;;;38.45;12.25;;;;;;;;;;5075231;28;20032;-66
2022/01/15 12:00:21;;;;;;;39.83;12.60;;;;;;;;;;5082237;28;20082;-66
2022/01/15 12:03:04;;;;;;;36.40;13.23;;;;;;;;;;5072046;28;20032;-65
2022/01/15 12:05:32;;;;;;;32.50;12.52;;;;;;;;;;5054076;28;20520;-66
2022/01/15 12:08:01;;;;;;;42.35;12.95;;;;;;;;;;5071853;28;20501;-65
2022/01/15 12:10:46;;;;;;;32.65;13.88;;;;;;;;;;5070707;28;20024;-67
2022/01/15 12:13:18;;;;;;;33.13;14.13;;;;;;;;;;5053248;28;20132;-66
2022/01/15 12:15:45;;;;;;;37.45;15.88;;;;;;;;;;5069562;28;20106;-64
2022/01/15 12:18:19;;;;;;;42.97;17.33;;;;;;;;;;5073173;28;20404;-66
2022/01/15 12:20:46;;;;;;;52.63;22.35;;;;;;;;;;5053138;28;20394;-65
2022/01/15 12:23:18;;;;;;;52.30;21.30;;;;;;;;;;5071607;28;20051;-65
2022/01/15 12:29:06;;;;;;;63.75;33.72;;;;;;;;;;5052060;28;20124;-64
2022/01/15 12:31:32;;;;;;;68.93;35.60;;;;;;;;;;5048936;28;20051;-64
2022/01/15 12:33:58;;;;;;;76.85;39.58;;;;;;;;;;5055593;28;20021;-63
2022/01/15 12:36:24;;;;;;;79.28;42.17;;;;;;;;;;5078335;28;20027;-64
2022/01/15 12:38:52;;;;;;;73.38;41.05;;;;;;;;;;5067108;28;20032;-64
2022/01/15 12:41:18;;;;;;;86.03;42.85;;;;;;;;;;5075653;28;20028;-64
2022/01/15 12:43:45;;;;;;;81.53;40.92;;;;;;;;;;5057455;28;20035;-66
2022/01/15 12:46:12;;;;;;;79.82;37.55;;;;;;;;;;5057845;28;20025;-65
2022/01/15 12:48:40;;;;;;;70.03;36.67;;;;;;;;;;5073057;28;20163;-65
2022/01/15 12:51:09;;;;;;;89.38;44.85;;;;;;;;;;5071905;28;20048;-64
2022/01/15 12:53:36;;;;;;;84.13;40.50;;;;;;;;;;5055417;28;20035;-64
2022/01/15 12:56:07;;;;;;;84.32;41.47;;;;;;;;;;5055736;28;20032;-64
2022/01/15 12:58:33;;;;;;;84.25;45.08;;;;;;;;;;5056744;28;20020;-67
2022/01/15 13:01:02;;;;;;;93.32;41.97;;;;;;;;;;5075614;28;20039;-64
2022/01/15 13:03:30;;;;;;;92.03;44.30;;;;;;;;;;5057341;28;20256;-65
2022/01/15 13:06:01;;;;;;;88.53;45.60;;;;;;;;;;5053677;28;20039;-64
2022/01/15 13:08:28;;;;;;;94.35;49.38;;;;;;;;;;5071725;28;20459;-65
2022/01/15 13:11:04;;;;;;;94.18;49.65;;;;;;;;;;5073648;28;20067;-65
2022/01/15 13:13:34;;;;;;;93.60;49.70;;;;;;;;;;5073125;28;20036;-64
2022/01/15 13:16:07;;;;;;;94.70;48.22;;;;;;;;;;5056216;28;20146;-64
2022/01/15 13:18:39;;;;;;;100.93;47.65;;;;;;;;;;5055182;28;20111;-64
2022/01/15 13:21:07;;;;;;;81.03;44.38;;;;;;;;;;5080172;28;20024;-66
2022/01/15 13:23:47;;;;;;;87.45;46.40;;;;;;;;;;5075896;28;20104;-65
2022/01/15 13:26:19;;;;;;;90.70;49.45;;;;;;;;;;5074423;28;20021;-64
2022/01/15 13:28:46;;;;;;;94.85;46.17;;;;;;;;;;5072441;28;20028;-65
2022/01/15 13:34:28;;;;;;;72.53;39.92;;;;;;;;;;5073801;28;20040;-66
2022/01/15 13:36:54;;;;;;;80.70;42.38;;;;;;;;;;5052709;28;20032;-64
2022/01/15 13:39:22;;;;;;;69.10;40.88;;;;;;;;;;5073831;28;20127;-65
2022/01/15 13:41:50;;;;;;;81.78;41.88;;;;;;;;;;5056413;28;20052;-66
2022/01/15 13:44:17;;;;;;;87.85;46.08;;;;;;;;;;5074056;28;20070;-65
2022/01/15 13:46:49;;;;;;;101.97;56.10;;;;;;;;;;5074971;28;20027;-65
2022/01/15 13:49:17;;;;;;;143.48;80.32;;;;;;;;;;5074582;28;20154;-64
2022/01/15 13:54:32;;;;;;;124.95;72.35;;;;;;;;;;5074561;28;20083;-64
2022/01/15 13:57:07;;;;;;;111.82;64.65;;;;;;;;;;5058406;28;20032;-63
2022/01/15 13:59:34;;;;;;;97.57;55.03;;;;;;;;;;5054277;28;20218;-63
2022/01/15 14:02:01;;;;;;;90.68;51.03;;;;;;;;;;5054052;28;20108;-65
2022/01/15 14:04:33;;;;;;;82.53;46.92;;;;;;;;;;5054261;28;20028;-65
2022/01/15 14:07:02;;;;;;;71.40;39.63;;;;;;;;;;5054188;28;20024;-65
2022/01/15 14:09:29;;;;;;;65.72;40.08;;;;;;;;;;5054189;28;20083;-63
2022/01/15 14:11:56;;;;;;;71.55;39.15;;;;;;;;;;5054521;28;20047;-65
2022/01/15 14:14:22;;;;;;;78.18;42.72;;;;;;;;;;5054060;28;20025;-65
2022/01/15 14:16:59;;;;;;;88.47;50.42;;;;;;;;;;5054085;28;20025;-65
2022/01/15 14:22:15;;;;;;;92.25;50.10;;;;;;;;;;5054143;28;20036;-64
2022/01/15 14:24:43;;;;;;;96.78;54.35;;;;;;;;;;5073158;28;20024;-66
2022/01/15 14:27:16;;;;;;;92.50;54.92;;;;;;;;;;5074104;28;20029;-64
2022/01/15 14:29:42;;;;;;;106.35;65.53;;;;;;;;;;5073563;28;20032;-65
2022/01/15 14:32:09;;;;;;;118.70;67.90;;;;;;;;;;5072784;28;20028;-65
2022/01/15 14:34:35;;;;;;;122.72;69.93;;;;;;;;;;5054498;28;20434;-64
2022/01/15 14:37:01;;;;;;;122.25;70.88;;;;;;;;;;5073480;28;20021;-65
2022/01/15 14:39:28;;;;;;;120.93;71.28;;;;;;;;;;5073535;28;20012;-64
2022/01/15 14:41:54;;;;;;;140.25;76.25;;;;;;;;;;5073652;28;20840;-64
2022/01/15 14:44:20;;;;;;;130.45;75.72;;;;;;;;;;5073624;28;20100;-65
2022/01/15 14:46:46;;;;;;;134.98;80.95;;;;;;;;;;5072708;28;20024;-65
2022/01/15 14:49:13;;;;;;;143.27;79.97;;;;;;;;;;5071699;28;20024;-65
2022/01/15 14:51:39;;;;;;;137.30;77.93;;;;;;;;;;5066383;28;20042;-65
2022/01/15 14:57:12;;;;;;;115.47;64.45;;;;;;;;;;5073110;28;20467;-64
2022/01/15 15:02:42;;;;;;;110.82;63.15;;;;;;;;;;5073835;28;20070;-64
2022/01/15 15:05:09;;;;;;;106.65;64.70;;;;;;;;;;5073626;28;20021;-64
2022/01/15 15:07:36;;;;;;;107.63;60.20;;;;;;;;;;5055897;28;20036;-63
2022/01/15 15:10:04;;;;;;;104.80;60.03;;;;;;;;;;5073584;28;20017;-64
2022/01/15 15:12:37;;;;;;;104.97;59.35;;;;;;;;;;5073392;28;20079;-64
2022/01/15 15:15:37;;;;;;;111.82;61.67;;;;;;;;;;5073435;28;20378;-64
2022/01/15 15:18:04;;;;;;;104.43;57.97;;;;;;;;;;5073216;28;20024;-64
2022/01/15 15:20:30;;;;;;;103.88;57.85;;;;;;;;;;5055186;28;20453;-65
2022/01/15 15:22:56;;;;;;;107.93;59.58;;;;;;;;;;5055499;28;20419;-65
2022/01/15 15:25:23;;;;;;;101.25;59.88;;;;;;;;;;5073265;28;20020;-65
2022/01/15 15:27:49;;;;;;;103.15;59.78;;;;;;;;;;5055354;28;20024;-65
2022/01/15 15:30:15;;;;;;;103.65;56.80;;;;;;;;;;5073208;28;20035;-65
2022/01/15 15:32:42;;;;;;;104.63;57.50;;;;;;;;;;5043063;28;20179;-65
2022/01/15 15:35:08;;;;;;;99.75;57.63;;;;;;;;;;5051963;28;20029;-65
2022/01/15 15:37:35;;;;;;;103.85;62.00;;;;;;;;;;5072067;28;20031;-65
2022/01/15 15:40:02;;;;;;;109.53;59.92;;;;;;;;;;5073118;28;20035;-64
2022/01/15 15:42:28;;;;;;;103.90;61.38;;;;;;;;;;5073011;28;20020;-65
2022/01/15 15:44:54;;;;;;;109.03;61.83;;;;;;;;;;5055088;28;20112;-65
2022/01/15 15:47:21;;;;;;;110.90;58.55;;;;;;;;;;5073265;28;20617;-64
2022/01/15 15:49:49;;;;;;;98.93;57.72;;;;;;;;;;5054929;28;20494;-65
2022/01/15 15:52:15;;;;;;;111.45;57.83;;;;;;;;;;5072852;28;20275;-65
2022/01/15 15:54:41;;;;;;;106.40;58.08;;;;;;;;;;5064562;28;20052;-64
2022/01/15 15:57:11;;;;;;;113.60;60.40;;;;;;;;;;5072629;28;20025;-63
2022/01/15 15:59:41;;;;;;;106.55;60.30;;;;;;;;;;5072703;28;20021;-65
2022/01/15 16:02:08;;;;;;;112.03;61.33;;;;;;;;;;5072718;28;20502;-65
2022/01/15 16:04:35;;;;;;;111.47;61.42;;;;;;;;;;5073001;28;20028;-65
2022/01/15 16:07:01;;;;;;;99.97;59.20;;;;;;;;;;5072074;28;20025;-63
2022/01/15 16:09:27;;;;;;;105.68;58.97;;;;;;;;;;5054431;28;20115;-64